Terminal Aerodrome Forecast
Issued by NWS Kansas City/Pleasant Hill, MO

Home | Current Version | Previous Version | Graphics & Text | Print | Product List | Glossary On
Versions: 1 2 3 4 5 6 7 8 9 10 11 12 13 14 15 16 17
000
FTUS43 KEAX 241120
TAFMCI
TAF
KMCI 241120Z 2412/2512 18015G25KT P6SM BKN200
     FM241600 19017G30KT P6SM VCTS BKN070CB
     FM241800 18011G21KT P6SM -SHRA VCTS OVC030CB
     FM250300 11006KT P6SM VCSH BKN015
     FM250600 06006KT 5SM -RA BKN008=

USA.gov is the U.S. government's official web portal to all federal, state and local government web resources and services.